Time;durP1;ratioP1;P1;durP2;ratioP2;P2;SDS_P1;SDS_P2;PMS_P1;PMS_P2;Temp;Humidity;BMP_temperature;BMP_pressure;BME280_temperature;BME280_humidity;BME280_pressure;Samples;Min_cycle;Max_cycle;Signal;HPM_P1;HPM_P2
2023/04/03 00:00:04;;;;;;;8.55;5.18;;;9.30;99.90;;;;;;4960127;28;20024;-72
2023/04/03 00:02:29;;;;;;;10.02;5.68;;;9.30;99.90;;;;;;4959732;28;20015;-73
2023/04/03 00:04:55;;;;;;;8.18;6.05;;;9.30;99.90;;;;;;4959873;28;20031;-73
2023/04/03 00:07:20;;;;;;;9.20;5.55;;;9.20;99.90;;;;;;4957748;28;20023;-73
2023/04/03 00:09:46;;;;;;;9.43;5.28;;;9.20;99.90;;;;;;4947853;29;20051;-72
2023/04/03 00:12:12;;;;;;;6.05;5.45;;;9.20;99.90;;;;;;4959808;28;20031;-72
2023/04/03 00:14:37;;;;;;;8.52;5.60;;;9.20;99.90;;;;;;4959701;28;20054;-73
2023/04/03 00:17:03;;;;;;;9.73;6.38;;;9.20;99.90;;;;;;4959415;28;20392;-73
2023/04/03 00:19:29;;;;;;;10.90;5.40;;;9.20;99.90;;;;;;4959323;28;20027;-73
2023/04/03 00:21:55;;;;;;;10.63;5.80;;;9.20;99.90;;;;;;4959451;28;20034;-72
2023/04/03 00:24:21;;;;;;;9.05;4.57;;;9.20;99.90;;;;;;4959671;28;20031;-72
2023/04/03 00:26:46;;;;;;;12.27;5.70;;;9.20;99.90;;;;;;4958170;28;20074;-72
2023/04/03 00:29:12;;;;;;;9.00;5.60;;;9.20;99.90;;;;;;4959315;29;20031;-72
2023/04/03 00:31:37;;;;;;;5.50;4.82;;;9.20;99.90;;;;;;4959461;28;20035;-72
2023/04/03 00:34:03;;;;;;;10.02;5.30;;;9.20;99.90;;;;;;4959129;28;20020;-72
2023/04/03 00:36:29;;;;;;;8.57;5.25;;;9.20;99.90;;;;;;4959273;28;20452;-71
2023/04/03 00:38:55;;;;;;;11.20;5.93;;;9.20;99.90;;;;;;4958048;29;20038;-71
2023/04/03 00:41:21;;;;;;;8.20;5.90;;;9.20;99.90;;;;;;4959051;28;20433;-72
2023/04/03 00:43:46;;;;;;;8.25;5.40;;;9.20;99.90;;;;;;4959304;28;20081;-72
2023/04/03 00:46:12;;;;;;;10.68;5.97;;;9.20;99.90;;;;;;4957717;28;20024;-71
2023/04/03 00:48:44;;;;;;;8.57;5.97;;;9.20;99.90;;;;;;4958849;29;20042;-71
2023/04/03 00:51:14;;;;;;;9.15;5.47;;;9.20;99.90;;;;;;4958866;28;20092;-72
2023/04/03 00:54:09;;;;;;;6.25;4.60;;;9.20;99.90;;;;;;4959335;29;20023;-72
2023/04/03 00:56:36;;;;;;;14.90;5.45;;;9.20;99.90;;;;;;4957689;29;20041;-71
2023/04/03 00:59:06;;;;;;;10.90;6.00;;;9.20;99.90;;;;;;4956854;29;20050;-71
2023/04/03 01:01:32;;;;;;;11.77;6.10;;;9.10;99.90;;;;;;4959030;29;20031;-71
2023/04/03 01:04:02;;;;;;;5.90;5.35;;;9.10;99.90;;;;;;4954587;28;20110;-71
2023/04/03 01:06:32;;;;;;;6.82;4.82;;;9.10;99.90;;;;;;4957544;28;20058;-71
2023/04/03 01:08:59;;;;;;;6.40;5.80;;;9.10;99.90;;;;;;4957800;29;20032;-71
2023/04/03 01:11:25;;;;;;;9.90;6.85;;;9.10;99.90;;;;;;4958892;28;20075;-72
2023/04/03 01:13:51;;;;;;;7.55;6.68;;;9.10;99.90;;;;;;4959012;28;20023;-71
2023/04/03 01:16:18;;;;;;;11.32;5.35;;;9.10;99.90;;;;;;4958873;29;20106;-72
2023/04/03 01:18:45;;;;;;;7.57;5.70;;;9.10;99.90;;;;;;4958234;28;20026;-71
2023/04/03 01:21:36;;;;;;;6.40;5.80;;;9.10;99.90;;;;;;4958648;28;20043;-71
2023/04/03 01:24:31;;;;;;;8.00;5.88;;;9.00;99.90;;;;;;4953596;29;20492;-71
2023/04/03 01:26:57;;;;;;;7.43;5.55;;;9.00;99.90;;;;;;4957705;28;20023;-70
2023/04/03 01:29:23;;;;;;;6.20;5.22;;;9.00;99.90;;;;;;4958517;28;20028;-71
2023/04/03 01:32:02;;;;;;;10.93;5.95;;;9.00;99.90;;;;;;4958419;28;20047;-71
2023/04/03 01:34:28;;;;;;;7.97;5.53;;;9.00;99.90;;;;;;4958909;29;20016;-71
2023/04/03 01:36:55;;;;;;;10.23;5.90;;;9.00;99.90;;;;;;4958800;29;20027;-72
2023/04/03 01:39:21;;;;;;;8.45;5.45;;;8.90;99.90;;;;;;4958929;28;20102;-71
2023/04/03 01:41:47;;;;;;;11.60;6.43;;;8.90;99.90;;;;;;4958631;28;20106;-71
2023/04/03 01:44:13;;;;;;;6.45;5.80;;;8.90;99.90;;;;;;4958844;29;20079;-71
2023/04/03 01:46:41;;;;;;;9.52;6.45;;;8.80;99.90;;;;;;4952444;28;20028;-71
2023/04/03 01:49:06;;;;;;;7.18;6.30;;;8.90;99.90;;;;;;4958531;28;20023;-72
2023/04/03 01:51:33;;;;;;;9.45;6.45;;;8.80;99.90;;;;;;4958538;28;20034;-71
2023/04/03 01:53:58;;;;;;;7.88;6.32;;;8.80;99.90;;;;;;4958764;29;20030;-73
2023/04/03 01:56:24;;;;;;;13.05;7.28;;;8.80;99.90;;;;;;4958484;28;20027;-71
2023/04/03 01:58:50;;;;;;;6.72;5.97;;;8.80;99.90;;;;;;4958659;28;20015;-72
2023/04/03 02:01:16;;;;;;;9.15;6.20;;;8.80;99.90;;;;;;4958577;29;20027;-72
2023/04/03 02:03:42;;;;;;;11.88;7.10;;;8.80;99.90;;;;;;4947651;29;20055;-72
2023/04/03 02:06:07;;;;;;;6.95;6.18;;;8.80;99.90;;;;;;4957094;28;20046;-72
2023/04/03 02:08:33;;;;;;;13.05;6.72;;;8.80;99.90;;;;;;4957310;28;20019;-72
2023/04/03 02:10:59;;;;;;;7.57;6.75;;;8.80;99.90;;;;;;4958439;29;20031;-71
2023/04/03 02:13:24;;;;;;;10.02;6.90;;;8.70;99.90;;;;;;4958495;28;20019;-70
2023/04/03 02:15:50;;;;;;;11.70;6.43;;;8.70;99.90;;;;;;4958393;29;20054;-71
2023/04/03 02:18:16;;;;;;;10.57;7.18;;;8.60;99.90;;;;;;4958111;29;20057;-71
2023/04/03 02:20:42;;;;;;;22.73;9.50;;;8.50;99.90;;;;;;4956726;28;20066;-71
2023/04/03 02:23:08;;;;;;;11.10;7.93;;;8.50;99.90;;;;;;4958455;28;20031;-71
2023/04/03 02:25:34;;;;;;;15.80;8.20;;;8.50;99.90;;;;;;4958159;28;20086;-71
2023/04/03 02:27:59;;;;;;;11.65;6.97;;;8.40;99.90;;;;;;4950375;28;20035;-71
2023/04/03 02:30:26;;;;;;;9.10;7.32;;;8.40;99.90;;;;;;4959572;28;20047;-71
2023/04/03 02:32:51;;;;;;;14.15;8.63;;;8.40;99.90;;;;;;4961657;28;20046;-71
2023/04/03 02:35:17;;;;;;;12.82;8.20;;;8.40;99.90;;;;;;4960219;28;20090;-71
2023/04/03 02:37:43;;;;;;;8.70;7.75;;;8.40;99.90;;;;;;4961851;29;20019;-71
2023/04/03 02:40:09;;;;;;;11.00;8.13;;;8.30;99.90;;;;;;4960281;28;20400;-71
2023/04/03 02:42:34;;;;;;;12.02;8.18;;;8.40;99.90;;;;;;4961786;29;20566;-70
2023/04/03 02:45:00;;;;;;;12.95;8.52;;;8.30;99.90;;;;;;4960095;28;20032;-71
2023/04/03 02:47:27;;;;;;;12.32;8.95;;;8.30;99.90;;;;;;4953037;29;20115;-71
2023/04/03 02:49:53;;;;;;;12.88;8.57;;;8.30;99.90;;;;;;4961163;28;20111;-71
2023/04/03 02:52:19;;;;;;;11.68;8.95;;;8.30;99.90;;;;;;4961604;28;20034;-70
2023/04/03 02:54:44;;;;;;;10.05;9.05;;;8.30;99.90;;;;;;4961242;28;20476;-71
2023/04/03 02:57:10;;;;;;;9.43;8.25;;;8.30;99.90;;;;;;4961264;28;20027;-71
2023/04/03 02:59:37;;;;;;;12.30;9.07;;;8.30;99.90;;;;;;4959929;28;20031;-70
2023/04/03 03:02:02;;;;;;;16.95;8.75;;;8.30;99.90;;;;;;4960817;28;20031;-71
2023/04/03 03:04:28;;;;;;;13.50;8.60;;;8.30;99.90;;;;;;4960782;28;20460;-71
2023/04/03 03:06:53;;;;;;;13.05;8.40;;;8.30;99.90;;;;;;4960472;29;20055;-72
2023/04/03 03:09:19;;;;;;;11.52;8.18;;;8.30;99.90;;;;;;4960962;28;20059;-71
2023/04/03 03:11:45;;;;;;;14.65;9.55;;;8.30;99.90;;;;;;4959378;29;20015;-71
2023/04/03 03:14:10;;;;;;;9.63;8.30;;;8.30;99.90;;;;;;4961013;28;20032;-71
2023/04/03 03:16:36;;;;;;;9.90;7.80;;;8.30;99.90;;;;;;4960722;28;20019;-70
2023/04/03 03:19:02;;;;;;;12.82;9.25;;;8.20;99.90;;;;;;4960656;28;20024;-71
2023/04/03 03:21:27;;;;;;;13.77;8.77;;;8.20;99.90;;;;;;4960500;28;20582;-71
2023/04/03 03:23:54;;;;;;;11.93;8.82;;;8.20;99.90;;;;;;4960635;28;20472;-70
2023/04/03 03:26:20;;;;;;;12.98;8.88;;;8.20;99.90;;;;;;4960726;28;20019;-71
2023/04/03 03:28:46;;;;;;;11.77;9.20;;;8.20;99.90;;;;;;4960725;29;20050;-71
2023/04/03 03:31:12;;;;;;;13.88;8.75;;;8.20;99.90;;;;;;4960382;28;20019;-71
2023/04/03 03:33:38;;;;;;;11.75;8.55;;;8.30;99.90;;;;;;4960392;28;20090;-70
2023/04/03 03:36:03;;;;;;;11.00;7.80;;;8.20;99.90;;;;;;4960685;29;20031;-71
2023/04/03 03:38:29;;;;;;;13.65;9.00;;;8.30;99.90;;;;;;4960517;28;20365;-71
2023/04/03 03:40:55;;;;;;;11.52;8.68;;;8.30;99.90;;;;;;4959160;28;20373;-70
2023/04/03 03:43:21;;;;;;;12.27;9.23;;;8.30;99.90;;;;;;4960401;28;20091;-70
2023/04/03 03:45:52;;;;;;;11.73;8.55;;;8.30;99.90;;;;;;4947848;28;20023;-70
2023/04/03 03:48:18;;;;;;;15.40;8.85;;;8.30;99.90;;;;;;4958605;29;20094;-70
2023/04/03 03:50:43;;;;;;;10.80;8.60;;;8.30;99.90;;;;;;4958985;28;20110;-70
2023/04/03 03:53:09;;;;;;;13.70;8.55;;;8.30;99.90;;;;;;4960148;28;20046;-71
2023/04/03 03:55:35;;;;;;;17.25;9.10;;;8.30;99.90;;;;;;4960367;28;20069;-70
2023/04/03 03:58:01;;;;;;;11.43;8.80;;;8.30;99.90;;;;;;4960217;28;20047;-70
2023/04/03 04:00:27;;;;;;;13.25;8.40;;;8.30;99.90;;;;;;4959102;29;20432;-70
2023/04/03 04:02:53;;;;;;;10.48;8.07;;;8.30;99.90;;;;;;4959709;28;20113;-71
2023/04/03 04:05:19;;;;;;;12.00;9.25;;;8.30;99.90;;;;;;4960132;29;20479;-71
2023/04/03 04:07:45;;;;;;;12.25;8.85;;;8.30;99.90;;;;;;4959815;28;20027;-71
2023/04/03 04:10:10;;;;;;;11.50;8.85;;;8.40;99.90;;;;;;4960036;28;20031;-71
2023/04/03 04:12:36;;;;;;;10.82;9.15;;;8.40;99.90;;;;;;4960007;28;20086;-71
2023/04/03 04:15:03;;;;;;;12.15;8.30;;;8.40;99.90;;;;;;4959926;28;20030;-70
2023/04/03 04:17:29;;;;;;;8.65;7.78;;;8.40;99.90;;;;;;4959574;28;20020;-70
2023/04/03 04:19:54;;;;;;;15.75;9.02;;;8.40;99.90;;;;;;4959683;28;20054;-70
2023/04/03 04:22:20;;;;;;;10.95;7.97;;;8.40;99.90;;;;;;4958393;28;20094;-70
2023/04/03 04:24:45;;;;;;;13.27;9.35;;;8.40;99.90;;;;;;4958529;29;20446;-70
2023/04/03 04:27:11;;;;;;;13.80;8.70;;;8.40;99.90;;;;;;4951953;28;20040;-71
2023/04/03 04:29:37;;;;;;;14.23;9.07;;;8.40;99.90;;;;;;4959692;28;20455;-70
2023/04/03 04:32:04;;;;;;;12.55;9.07;;;8.40;99.90;;;;;;4957883;28;20034;-71
2023/04/03 04:34:29;;;;;;;9.75;8.75;;;8.40;99.90;;;;;;4958175;28;20023;-70
2023/04/03 04:36:55;;;;;;;14.93;8.93;;;8.40;99.90;;;;;;4959297;28;20558;-71
2023/04/03 04:39:21;;;;;;;14.20;8.77;;;8.40;99.90;;;;;;4959661;28;20073;-70
2023/04/03 04:41:46;;;;;;;12.23;8.60;;;8.40;99.90;;;;;;4959240;28;20103;-70
2023/04/03 04:44:12;;;;;;;11.63;9.10;;;8.40;99.90;;;;;;4958061;28;20118;-70
2023/04/03 04:46:38;;;;;;;9.80;8.57;;;8.40;99.90;;;;;;4952817;28;20031;-70
2023/04/03 04:49:03;;;;;;;9.75;8.40;;;8.30;99.90;;;;;;4957752;28;20027;-70
2023/04/03 04:51:29;;;;;;;11.38;8.00;;;8.30;99.90;;;;;;4959084;28;20062;-71
2023/04/03 04:53:55;;;;;;;14.23;8.88;;;8.30;99.90;;;;;;4958887;28;20019;-71
2023/04/03 04:56:20;;;;;;;11.48;8.23;;;8.30;99.90;;;;;;4957539;28;20031;-70
2023/04/03 04:58:46;;;;;;;12.00;7.85;;;8.30;99.90;;;;;;4959215;28;20023;-71
2023/04/03 05:01:12;;;;;;;15.38;9.73;;;8.40;99.90;;;;;;4958793;28;20102;-71
2023/04/03 05:03:37;;;;;;;11.52;8.02;;;8.40;99.90;;;;;;4957550;29;20033;-71
2023/04/03 05:06:03;;;;;;;9.88;8.82;;;8.40;99.90;;;;;;4958727;28;20031;-71
2023/04/03 05:08:29;;;;;;;13.07;8.73;;;8.40;99.90;;;;;;4958981;28;20051;-71
2023/04/03 05:10:55;;;;;;;11.02;8.50;;;8.40;99.90;;;;;;4958823;28;20491;-71
2023/04/03 05:13:20;;;;;;;12.02;8.38;;;8.40;99.90;;;;;;4958982;28;20035;-71
2023/04/03 05:15:47;;;;;;;10.27;7.53;;;8.40;99.90;;;;;;4958889;28;20373;-72
2023/04/03 05:18:13;;;;;;;11.65;8.05;;;8.40;99.90;;;;;;4957247;29;20019;-71
2023/04/03 05:20:39;;;;;;;13.63;10.73;;;8.40;99.90;;;;;;4957444;28;20051;-71
2023/04/03 05:23:05;;;;;;;10.38;7.97;;;8.40;99.90;;;;;;4958896;28;20110;-71
2023/04/03 05:25:31;;;;;;;11.27;8.60;;;8.40;99.90;;;;;;4958844;28;20106;-71
2023/04/03 05:27:56;;;;;;;9.70;8.60;;;8.40;99.90;;;;;;4958813;29;20064;-70
2023/04/03 05:30:22;;;;;;;17.63;9.05;;;8.40;99.90;;;;;;4958637;28;20030;-70
2023/04/03 05:32:48;;;;;;;11.30;8.57;;;8.40;99.90;;;;;;4958669;29;20155;-70
2023/04/03 05:35:14;;;;;;;12.70;8.90;;;8.30;99.90;;;;;;4958565;28;20046;-71
2023/04/03 05:37:40;;;;;;;11.82;9.45;;;8.30;99.90;;;;;;4957065;29;20095;-71
2023/04/03 05:40:07;;;;;;;12.15;9.10;;;8.30;99.90;;;;;;4957089;28;20031;-70
2023/04/03 05:42:33;;;;;;;12.02;10.00;;;8.30;99.90;;;;;;4958676;28;20518;-71
2023/04/03 05:44:58;;;;;;;12.27;9.68;;;8.30;99.90;;;;;;4958549;28;20035;-71
2023/04/03 05:47:24;;;;;;;15.10;9.57;;;8.30;99.90;;;;;;4951923;29;20030;-71
2023/04/03 05:49:50;;;;;;;14.65;9.85;;;8.40;99.90;;;;;;4956977;29;20031;-71
2023/04/03 05:52:38;;;;;;;13.25;10.30;;;8.40;99.90;;;;;;4958841;29;20046;-71
2023/04/03 05:55:04;;;;;;;23.85;10.38;;;8.40;99.90;;;;;;4958323;28;20019;-71
2023/04/03 05:57:29;;;;;;;20.10;9.77;;;8.40;99.90;;;;;;4957458;28;20023;-71
2023/04/03 05:59:55;;;;;;;11.75;9.25;;;8.40;99.90;;;;;;4957042;28;20411;-71
2023/04/03 06:02:22;;;;;;;13.23;8.98;;;8.40;99.90;;;;;;4957158;29;20034;-71
2023/04/03 06:04:48;;;;;;;14.27;9.18;;;8.40;99.90;;;;;;4957579;28;20043;-71
2023/04/03 06:07:17;;;;;;;17.00;10.10;;;8.50;99.90;;;;;;4962000;28;20027;-71
2023/04/03 06:09:43;;;;;;;10.88;9.00;;;8.50;99.90;;;;;;4961886;28;20092;-71
2023/04/03 06:12:09;;;;;;;13.63;8.95;;;8.50;99.90;;;;;;4962223;29;20079;-71
2023/04/03 06:14:35;;;;;;;14.57;10.10;;;8.50;99.90;;;;;;4959809;28;20034;-71
2023/04/03 06:17:01;;;;;;;12.43;9.10;;;8.50;99.90;;;;;;4960466;28;20036;-71
2023/04/03 06:19:27;;;;;;;13.40;9.40;;;8.50;99.90;;;;;;4961490;28;20184;-71
2023/04/03 06:21:53;;;;;;;12.75;9.35;;;8.50;99.90;;;;;;4961941;28;20396;-71
2023/04/03 06:24:21;;;;;;;13.23;8.95;;;8.50;99.90;;;;;;4961863;29;20099;-71
2023/04/03 06:26:47;;;;;;;15.05;9.80;;;8.50;99.90;;;;;;4961794;29;20488;-71
2023/04/03 06:29:12;;;;;;;10.55;9.38;;;8.50;99.90;;;;;;4960357;28;20109;-71
2023/04/03 06:31:38;;;;;;;11.30;9.52;;;8.60;99.90;;;;;;4960344;29;20024;-71
2023/04/03 06:34:06;;;;;;;9.80;7.93;;;8.60;99.90;;;;;;4961533;28;20055;-71
2023/04/03 06:36:31;;;;;;;9.13;8.18;;;8.60;99.90;;;;;;4960471;28;20027;-71
2023/04/03 06:38:57;;;;;;;13.52;9.63;;;8.60;99.90;;;;;;4961528;28;20031;-71
2023/04/03 06:41:23;;;;;;;14.57;8.23;;;8.60;99.90;;;;;;4961567;28;20051;-71
2023/04/03 06:43:48;;;;;;;9.60;8.32;;;8.70;99.90;;;;;;4961312;28;20035;-71
2023/04/03 06:46:16;;;;;;;14.73;8.35;;;8.70;99.90;;;;;;4957124;28;20508;-71
2023/04/03 06:48:42;;;;;;;12.88;8.52;;;8.60;99.90;;;;;;4958208;28;20039;-71
2023/04/03 06:51:19;;;;;;;12.05;8.40;;;8.70;99.90;;;;;;4959861;28;20034;-71
2023/04/03 06:53:46;;;;;;;11.15;8.50;;;8.70;99.90;;;;;;4960127;29;20034;-71
2023/04/03 06:56:12;;;;;;;8.98;8.07;;;8.70;99.90;;;;;;4961231;28;20563;-72
2023/04/03 06:58:38;;;;;;;11.45;7.85;;;8.80;99.90;;;;;;4961215;29;20149;-71
2023/04/03 07:01:04;;;;;;;14.02;8.75;;;8.80;99.90;;;;;;4959750;28;20031;-71
2023/04/03 07:03:30;;;;;;;11.80;7.80;;;8.80;99.90;;;;;;4960878;28;20027;-72
2023/04/03 07:05:55;;;;;;;10.85;7.80;;;8.80;99.90;;;;;;4958730;29;20023;-71
2023/04/03 07:08:23;;;;;;;11.30;8.80;;;8.80;99.90;;;;;;4960928;28;20031;-71
2023/04/03 07:10:49;;;;;;;10.27;8.40;;;8.90;99.90;;;;;;4960544;28;20035;-71
2023/04/03 07:13:15;;;;;;;10.77;7.43;;;8.90;99.90;;;;;;4960815;28;20023;-72
2023/04/03 07:15:41;;;;;;;9.82;7.45;;;8.90;99.90;;;;;;4960516;28;20047;-72
2023/04/03 07:18:07;;;;;;;9.13;8.07;;;9.00;99.90;;;;;;4960660;28;20054;-71
2023/04/03 07:20:33;;;;;;;9.10;7.78;;;9.00;99.90;;;;;;4960821;28;20134;-73
2023/04/03 07:22:59;;;;;;;11.02;7.63;;;9.00;99.90;;;;;;4960858;29;20082;-72
2023/04/03 07:25:25;;;;;;;9.05;7.93;;;9.10;99.90;;;;;;4960764;28;20444;-71
2023/04/03 07:27:51;;;;;;;15.60;8.60;;;9.10;99.90;;;;;;4958877;28;20152;-71
2023/04/03 07:30:16;;;;;;;17.35;8.02;;;9.10;99.90;;;;;;4960510;28;20027;-70
2023/04/03 07:32:42;;;;;;;11.05;8.20;;;9.10;99.90;;;;;;4960513;28;20110;-72
2023/04/03 07:35:08;;;;;;;11.23;7.88;;;9.20;99.90;;;;;;4960470;28;20031;-72
2023/04/03 07:37:33;;;;;;;8.68;7.55;;;9.20;99.90;;;;;;4960534;28;20027;-72
2023/04/03 07:40:01;;;;;;;9.05;8.10;;;9.20;99.90;;;;;;4960517;28;20082;-72
2023/04/03 07:42:27;;;;;;;10.70;7.38;;;9.30;99.90;;;;;;4960252;28;20436;-72
2023/04/03 07:44:53;;;;;;;11.40;7.53;;;9.30;99.90;;;;;;4959479;28;20126;-71
2023/04/03 07:47:20;;;;;;;8.10;6.65;;;9.30;99.90;;;;;;4959738;28;20027;-70
2023/04/03 07:49:46;;;;;;;7.43;6.47;;;9.30;99.90;;;;;;4959839;28;20388;-70
2023/04/03 07:52:12;;;;;;;9.10;7.40;;;9.30;99.90;;;;;;4949935;28;20030;-69
2023/04/03 07:54:37;;;;;;;14.73;7.40;;;9.30;99.90;;;;;;4958452;28;20015;-68
2023/04/03 07:57:03;;;;;;;11.98;7.57;;;9.40;99.90;;;;;;4972813;28;20023;-71
2023/04/03 07:59:29;;;;;;;8.02;6.28;;;9.50;99.90;;;;;;4962488;28;20027;-70
2023/04/03 08:01:55;;;;;;;8.15;6.60;;;9.50;99.90;;;;;;4965838;28;20047;-71
2023/04/03 08:04:22;;;;;;;9.90;6.82;;;9.60;99.90;;;;;;4970724;28;20022;-71
2023/04/03 08:06:47;;;;;;;11.95;6.53;;;9.70;99.90;;;;;;4969376;28;20455;-70
2023/04/03 08:09:15;;;;;;;6.80;6.05;;;9.70;99.90;;;;;;4966505;28;20030;-71
2023/04/03 08:11:41;;;;;;;7.70;6.55;;;9.80;99.90;;;;;;4966414;28;20018;-71
2023/04/03 08:14:06;;;;;;;8.30;5.90;;;9.80;99.90;;;;;;4967249;28;20040;-71
2023/04/03 08:16:33;;;;;;;9.95;5.75;;;9.90;99.90;;;;;;4962627;28;20085;-71
2023/04/03 08:18:59;;;;;;;8.75;5.93;;;9.90;99.90;;;;;;4970955;28;20106;-70
2023/04/03 08:21:25;;;;;;;7.82;5.75;;;10.00;99.90;;;;;;4963478;28;20074;-71
2023/04/03 08:23:51;;;;;;;7.90;6.03;;;10.00;99.90;;;;;;4965857;28;20031;-71
2023/04/03 08:26:20;;;;;;;6.13;5.43;;;10.10;99.90;;;;;;4960901;28;20038;-71
2023/04/03 08:28:46;;;;;;;9.02;6.07;;;10.20;99.90;;;;;;4972885;28;20113;-71
2023/04/03 08:31:15;;;;;;;7.22;5.50;;;10.30;99.90;;;;;;4973492;28;20113;-71
2023/04/03 08:33:41;;;;;;;7.85;5.00;;;10.60;99.90;;;;;;4967583;28;20494;-71
2023/04/03 08:36:16;;;;;;;11.70;5.88;;;10.60;99.90;;;;;;4972978;28;20100;-71
2023/04/03 08:38:41;;;;;;;11.30;5.70;;;10.50;99.90;;;;;;4969757;28;20039;-70
2023/04/03 08:41:30;;;;;;;7.03;5.43;;;10.50;99.90;;;;;;4968227;28;20027;-69
2023/04/03 08:44:17;;;;;;;10.40;5.80;;;10.40;99.90;;;;;;4963397;28;20019;-70
2023/04/03 08:46:48;;;;;;;6.43;4.93;;;10.40;99.90;;;;;;4966232;28;20098;-70
2023/04/03 08:49:46;;;;;;;11.25;5.32;;;10.50;99.90;;;;;;4971029;28;20517;-71
2023/04/03 08:52:34;;;;;;;7.70;4.70;;;10.50;99.90;;;;;;4968077;28;20131;-70
2023/04/03 08:55:28;;;;;;;9.13;4.53;;;10.60;99.90;;;;;;4968147;28;20041;-68
2023/04/03 08:58:12;;;;;;;6.88;5.28;;;10.70;99.90;;;;;;4967523;28;20073;-70
2023/04/03 09:00:46;;;;;;;8.27;4.60;;;10.80;99.90;;;;;;4972075;28;20451;-70
2023/04/03 09:03:13;;;;;;;9.65;5.80;;;11.00;99.90;;;;;;4962354;28;20085;-70
2023/04/03 09:05:45;;;;;;;8.48;5.07;;;11.00;99.90;;;;;;4972863;28;20030;-70
2023/04/03 09:08:29;;;;;;;8.35;4.97;;;10.90;99.90;;;;;;4967538;28;20039;-69
2023/04/03 09:11:08;;;;;;;6.80;5.22;;;10.80;99.90;;;;;;4973018;28;20027;-71
2023/04/03 09:14:01;;;;;;;7.35;4.30;;;10.80;99.90;;;;;;4968884;28;20027;-69
2023/04/03 09:16:41;;;;;;;7.07;4.20;;;11.00;99.90;;;;;;4962440;28;20019;-69
2023/04/03 09:19:27;;;;;;;6.95;5.10;;;11.00;99.90;;;;;;4962220;28;20029;-69
2023/04/03 09:21:53;;;;;;;8.57;5.05;;;11.00;99.90;;;;;;4946624;29;20051;-70
2023/04/03 09:24:22;;;;;;;5.82;4.53;;;11.10;99.90;;;;;;4949220;29;20027;-71
2023/04/03 09:27:03;;;;;;;6.78;4.68;;;11.00;99.90;;;;;;4952666;28;20400;-71
2023/04/03 09:29:29;;;;;;;5.70;4.20;;;11.20;99.90;;;;;;4950948;29;20089;-70
2023/04/03 09:32:12;;;;;;;7.15;4.38;;;11.30;99.90;;;;;;4947678;29;20270;-71
2023/04/03 09:34:41;;;;;;;13.02;5.40;;;11.30;99.90;;;;;;4946974;29;20030;-69
2023/04/03 09:37:08;;;;;;;9.13;4.43;;;11.20;99.90;;;;;;4950644;28;20051;-70
2023/04/03 09:39:54;;;;;;;6.43;4.55;;;11.40;99.90;;;;;;4946654;29;20027;-71
2023/04/03 09:42:24;;;;;;;5.97;4.93;;;11.70;99.90;;;;;;4950603;29;20028;-71
2023/04/03 09:44:57;;;;;;;;;;;12.00;99.90;;;;;;4957766;28;20475;-71
2023/04/03 09:47:29;;;;;;;5.28;3.80;;;12.10;99.90;;;;;;4947919;29;20393;-71
2023/04/03 09:50:18;;;;;;;4.65;3.60;;;12.00;99.90;;;;;;4953935;29;20027;-71
2023/04/03 09:52:46;;;;;;;9.77;4.35;;;11.90;99.90;;;;;;4950745;29;20019;-69
2023/04/03 09:55:27;;;;;;;5.63;3.75;;;11.80;99.90;;;;;;4953003;29;20028;-70
2023/04/03 09:58:01;;;;;;;6.85;4.32;;;11.80;99.90;;;;;;4951307;29;20526;-70
2023/04/03 10:00:35;;;;;;;8.23;4.57;;;11.80;99.90;;;;;;4959832;28;20027;-71
2023/04/03 10:03:01;;;;;;;5.10;4.28;;;11.80;99.90;;;;;;4944749;29;20027;-71
2023/04/03 10:05:36;;;;;;;4.57;3.42;;;11.80;99.90;;;;;;4952664;29;20091;-70
2023/04/03 10:08:14;;;;;;;4.53;3.35;;;12.10;99.90;;;;;;4950233;29;20553;-70
2023/04/03 10:10:45;;;;;;;6.95;3.20;;;12.40;99.90;;;;;;4945733;29;20511;-70
2023/04/03 10:13:11;;;;;;;4.28;3.45;;;12.70;99.90;;;;;;4948037;29;20535;-70
2023/04/03 10:15:54;;;;;;;7.97;3.15;;;12.80;99.90;;;;;;4953670;28;20035;-70
2023/04/03 10:18:32;;;;;;;8.82;3.22;;;12.90;99.90;;;;;;4968020;28;20015;-71
2023/04/03 10:21:09;;;;;;;4.68;3.10;;;12.80;99.90;;;;;;4964679;28;20058;-70
2023/04/03 10:23:47;;;;;;;3.45;3.05;;;12.70;99.90;;;;;;4969914;28;20050;-70
2023/04/03 10:26:37;;;;;;;3.53;2.63;;;12.80;99.90;;;;;;4970483;28;20522;-71
2023/04/03 10:29:18;;;;;;;4.68;3.00;;;12.80;99.90;;;;;;4971479;28;20027;-71
2023/04/03 10:32:03;;;;;;;5.88;3.38;;;12.70;99.90;;;;;;4972330;28;20027;-72
2023/04/03 10:34:39;;;;;;;4.82;2.95;;;12.60;99.90;;;;;;4963976;28;20578;-71
2023/04/03 10:37:20;;;;;;;8.13;3.75;;;12.70;99.90;;;;;;4971369;28;20414;-72
2023/04/03 10:40:05;;;;;;;;;;;12.90;99.90;;;;;;4978733;28;20042;-71
2023/04/03 10:43:09;;;;;;;4.43;2.80;;;12.90;99.90;;;;;;4970926;28;19906;-71
2023/04/03 10:45:47;;;;;;;4.13;2.70;;;12.70;99.90;;;;;;4971807;28;20034;-70
2023/04/03 10:48:39;;;;;;;3.30;2.83;;;12.60;99.90;;;;;;4971006;28;20050;-71
2023/04/03 10:51:07;;;;;;;6.63;3.13;;;12.70;99.90;;;;;;4971634;28;20031;-71
2023/04/03 10:53:54;;;;;;;4.97;3.10;;;12.80;99.90;;;;;;4970870;28;20090;-71
2023/04/03 10:56:29;;;;;;;3.83;2.72;;;12.90;99.90;;;;;;4970827;28;20550;-70
2023/04/03 10:59:14;;;;;;;5.43;3.10;;;12.80;99.90;;;;;;4972512;28;20034;-71
2023/04/03 11:01:43;;;;;;;7.13;3.20;;;12.70;99.90;;;;;;4966317;28;20029;-70
2023/04/03 11:04:11;;;;;;;4.65;3.00;;;12.60;99.90;;;;;;4969963;28;20027;-70
2023/04/03 11:06:47;;;;;;;4.50;3.00;;;12.50;99.90;;;;;;4972230;28;20086;-71
2023/04/03 11:09:25;;;;;;;5.00;2.90;;;12.40;99.90;;;;;;4975065;28;20026;-71
2023/04/03 11:12:13;;;;;;;3.10;2.38;;;12.30;99.90;;;;;;4966987;28;20114;-70
2023/04/03 11:14:40;;;;;;;4.05;2.80;;;12.30;99.90;;;;;;4968960;28;20063;-70
2023/04/03 11:17:42;;;;;;;5.28;3.20;;;12.30;99.90;;;;;;4970355;28;20085;-71
2023/04/03 11:20:32;;;;;;;5.88;3.55;;;12.20;99.90;;;;;;4970733;28;20058;-71
2023/04/03 11:23:03;;;;;;;5.00;3.30;;;12.10;99.90;;;;;;4961957;28;20043;-71
2023/04/03 11:25:32;;;;;;;4.88;3.70;;;12.10;99.90;;;;;;4971031;28;20019;-71
2023/04/03 11:27:59;;;;;;;7.28;3.15;;;12.10;99.90;;;;;;4969269;28;20073;-71
2023/04/03 11:30:49;;;;;;;5.68;3.22;;;12.20;99.90;;;;;;4974123;28;20455;-71
2023/04/03 11:33:15;;;;;;;4.47;3.38;;;12.30;99.90;;;;;;4966916;28;20069;-70
2023/04/03 11:35:47;;;;;;;5.75;3.35;;;12.40;99.90;;;;;;4973180;28;20031;-70
2023/04/03 11:38:36;;;;;;;4.68;3.30;;;12.40;99.90;;;;;;4968842;28;20022;-71
2023/04/03 11:41:04;;;;;;;5.63;2.97;;;12.40;99.90;;;;;;4980266;28;20431;-70
2023/04/03 11:43:32;;;;;;;4.43;3.25;;;12.50;99.90;;;;;;4971099;28;20027;-70
2023/04/03 11:46:03;;;;;;;7.25;3.08;;;12.60;99.90;;;;;;4968325;28;20031;-72
2023/04/03 11:48:32;;;;;;;7.13;3.33;;;12.60;99.90;;;;;;4967743;28;20046;-71
2023/04/03 11:51:00;;;;;;;5.93;3.20;;;12.70;99.90;;;;;;4970111;28;20026;-71
2023/04/03 11:53:28;;;;;;;7.68;3.35;;;12.60;99.90;;;;;;4972906;28;20022;-72
2023/04/03 11:56:00;;;;;;;4.63;3.35;;;12.50;99.90;;;;;;4970213;28;20032;-71
2023/04/03 11:58:33;;;;;;;4.95;3.13;;;12.40;99.90;;;;;;4973807;28;20550;-70
2023/04/03 12:01:11;;;;;;;3.88;2.55;;;12.20;99.90;;;;;;4977312;28;20099;-70
2023/04/03 12:03:39;;;;;;;6.45;3.85;;;12.10;99.90;;;;;;4965288;28;20030;-72
2023/04/03 12:06:05;;;;;;;6.55;3.90;;;12.00;99.90;;;;;;4970409;28;20108;-71
2023/04/03 12:08:40;;;;;;;5.05;3.00;;;12.00;99.90;;;;;;4971456;28;20547;-71
2023/04/03 12:11:12;;;;;;;4.47;3.03;;;12.10;99.90;;;;;;4969875;28;20030;-70
2023/04/03 12:13:37;;;;;;;6.57;3.40;;;12.20;99.90;;;;;;4957074;28;20031;-70
2023/04/03 12:16:05;;;;;;;9.27;3.28;;;12.30;99.90;;;;;;4961978;28;20396;-71
2023/04/03 12:18:55;;;;;;;4.05;2.80;;;12.40;99.90;;;;;;4958036;28;20023;-72
2023/04/03 12:21:23;;;;;;;3.80;2.88;;;12.50;99.90;;;;;;4939850;28;20110;-71
2023/04/03 12:24:24;;;;;;;3.97;3.00;;;12.80;99.90;;;;;;4959541;28;20027;-70
2023/04/03 12:27:28;;;;;;;4.03;3.33;;;13.10;99.90;;;;;;4953818;28;20040;-70
2023/04/03 12:29:54;;;;;;;6.38;2.88;;;13.50;99.90;;;;;;4956975;29;20060;-71
2023/04/03 12:32:22;;;;;;;3.70;2.80;;;13.70;99.90;;;;;;4959274;29;20027;-70
2023/04/03 12:35:00;;;;;;;3.42;2.60;;;13.90;99.90;;;;;;4958035;28;20031;-71
2023/04/03 12:37:43;;;;;;;4.65;3.17;;;13.90;99.90;;;;;;4959420;28;20027;-71
2023/04/03 12:40:25;;;;;;;4.53;2.97;;;14.10;99.90;;;;;;4959432;29;20031;-69
2023/04/03 12:43:17;;;;;;;4.63;3.13;;;13.90;99.90;;;;;;4959419;28;20495;-70
2023/04/03 12:46:04;;;;;;;5.05;2.70;;;14.00;99.90;;;;;;4957852;29;20113;-70
2023/04/03 12:48:33;;;;;;;4.43;2.92;;;14.00;99.90;;;;;;4957732;28;20061;-70
2023/04/03 12:51:00;;;;;;;5.25;2.63;;;14.00;99.90;;;;;;4957887;28;20031;-71
2023/04/03 12:53:30;;;;;;;9.77;3.10;;;14.00;99.90;;;;;;4959265;29;20030;-70
2023/04/03 12:56:26;;;;;;;3.37;2.40;;;14.00;99.90;;;;;;4959230;29;20020;-70
2023/04/03 12:58:54;;;;;;;3.47;2.60;;;14.10;99.90;;;;;;4959225;29;20016;-71
2023/04/03 13:01:26;;;;;;;6.53;2.60;;;14.00;99.90;;;;;;4958877;28;20027;-70
2023/04/03 13:03:58;;;;;;;6.95;3.05;;;13.90;99.90;;;;;;4957831;29;20027;-71